Time;durP1;ratioP1;P1;durP2;ratioP2;P2;SDS_P1;SDS_P2;PMS_P1;PMS_P2;Temp;Humidity;BMP_temperature;BMP_pressure;BME280_temperature;BME280_humidity;BME280_pressure;Samples;Min_cycle;Max_cycle;Signal;HPM_P1;HPM_P2
2023/05/01 00:00:42;;;;;;;1.08;0.88;;;9.00;99.90;;;;;;4408542;32;20121;-64
2023/05/01 00:03:08;;;;;;;3.65;1.10;;;8.90;99.90;;;;;;4426486;32;20124;-63
2023/05/01 00:05:34;;;;;;;0.85;0.82;;;8.90;99.90;;;;;;4427235;32;20089;-64
2023/05/01 00:08:00;;;;;;;0.88;0.88;;;8.90;99.90;;;;;;4424007;32;20066;-65
2023/05/01 00:10:25;;;;;;;0.90;0.90;;;8.70;99.90;;;;;;4424849;32;20522;-64
2023/05/01 00:12:51;;;;;;;5.95;1.70;;;8.70;99.90;;;;;;4426560;32;20065;-64
2023/05/01 00:15:17;;;;;;;3.58;1.80;;;8.70;99.90;;;;;;4427441;32;20128;-64
2023/05/01 00:17:42;;;;;;;0.77;0.77;;;8.70;99.90;;;;;;4425737;32;20073;-64
2023/05/01 00:20:08;;;;;;;0.68;0.68;;;8.70;99.90;;;;;;4425688;32;20132;-64
2023/05/01 00:22:34;;;;;;;1.73;1.20;;;8.60;99.90;;;;;;4424361;32;20224;-64
2023/05/01 00:24:59;;;;;;;0.80;0.80;;;8.70;99.90;;;;;;4424946;32;20065;-64
2023/05/01 00:27:25;;;;;;;5.43;1.60;;;8.70;99.90;;;;;;4427583;32;20065;-64
2023/05/01 00:29:50;;;;;;;1.10;0.95;;;8.70;99.90;;;;;;4425959;32;20563;-64
2023/05/01 00:32:16;;;;;;;10.90;1.10;;;8.60;99.90;;;;;;4426252;32;20073;-62
2023/05/01 00:34:44;;;;;;;0.80;0.80;;;8.60;99.90;;;;;;4423790;32;20069;-64
2023/05/01 00:37:10;;;;;;;2.92;1.12;;;8.60;99.90;;;;;;4425383;32;20069;-64
2023/05/01 00:39:37;;;;;;;1.00;1.00;;;8.60;99.90;;;;;;4425214;32;20077;-64
2023/05/01 00:42:03;;;;;;;0.75;0.65;;;8.70;99.90;;;;;;4423091;32;20087;-64
2023/05/01 00:44:28;;;;;;;1.15;1.05;;;8.70;99.90;;;;;;4425620;32;20077;-64
2023/05/01 00:46:55;;;;;;;4.78;1.65;;;8.60;99.90;;;;;;4426428;32;20481;-64
2023/05/01 00:49:20;;;;;;;3.55;1.20;;;8.60;99.90;;;;;;4423149;32;20092;-64
2023/05/01 00:51:51;;;;;;;1.62;1.20;;;8.50;99.90;;;;;;4423529;32;20102;-64
2023/05/01 00:54:19;;;;;;;0.82;0.82;;;8.50;99.90;;;;;;4424067;32;20084;-63
2023/05/01 00:56:46;;;;;;;2.50;1.40;;;8.50;99.90;;;;;;4423695;32;20069;-64
2023/05/01 00:59:13;;;;;;;1.35;0.93;;;8.50;99.90;;;;;;4422949;32;20509;-64
2023/05/01 01:01:40;;;;;;;0.60;0.60;;;8.50;99.90;;;;;;4425726;32;20097;-63
2023/05/01 01:04:06;;;;;;;0.80;0.80;;;8.50;99.90;;;;;;4425123;32;20086;-64
2023/05/01 01:06:47;;;;;;;0.80;0.80;;;8.50;99.90;;;;;;4423692;32;20077;-64
2023/05/01 01:09:17;;;;;;;;;;;8.50;99.90;;;;;;4421373;32;20078;-63
2023/05/01 01:12:00;;;;;;;0.85;0.85;;;8.40;99.90;;;;;;4425050;32;19955;-63
2023/05/01 01:14:32;;;;;;;2.33;1.73;;;8.30;99.90;;;;;;4422504;32;20479;-64
2023/05/01 01:17:26;;;;;;;0.93;0.93;;;8.30;99.90;;;;;;4425489;32;20159;-64
2023/05/01 01:20:12;;;;;;;0.60;0.60;;;8.30;99.90;;;;;;4414347;32;20097;-65
2023/05/01 01:22:42;;;;;;;0.85;0.85;;;8.30;99.90;;;;;;4420126;32;20116;-64
2023/05/01 01:25:32;;;;;;;2.75;0.88;;;8.30;99.90;;;;;;4424215;32;20057;-64
2023/05/01 01:28:27;;;;;;;3.30;1.65;;;8.30;99.90;;;;;;4424321;32;21635;-65
2023/05/01 01:31:09;;;;;;;0.52;0.52;;;8.30;99.90;;;;;;4413636;32;20073;-64
2023/05/01 01:34:00;;;;;;;0.60;0.60;;;8.20;99.90;;;;;;4412032;32;20148;-64
2023/05/01 01:36:38;;;;;;;0.73;0.73;;;8.20;99.90;;;;;;4413600;32;20116;-64
2023/05/01 01:39:43;;;;;;;2.80;1.27;;;8.10;99.90;;;;;;4423986;32;20073;-64
2023/05/01 01:42:15;;;;;;;1.37;0.80;;;8.10;99.90;;;;;;4411430;32;20065;-64
2023/05/01 01:44:49;;;;;;;4.80;1.80;;;7.90;99.90;;;;;;4424368;32;20086;-64
2023/05/01 01:47:16;;;;;;;1.33;0.90;;;7.80;99.90;;;;;;4421935;32;20078;-62
2023/05/01 01:49:48;;;;;;;0.70;0.70;;;7.90;99.90;;;;;;4425163;32;20513;-64
2023/05/01 01:52:15;;;;;;;0.50;0.50;;;7.90;99.90;;;;;;4422856;32;20147;-64
2023/05/01 01:54:57;;;;;;;1.62;0.95;;;8.00;99.90;;;;;;4422918;32;20548;-64
2023/05/01 01:57:24;;;;;;;2.42;1.02;;;7.90;99.90;;;;;;4421903;32;20085;-64
2023/05/01 01:59:52;;;;;;;0.93;0.93;;;7.80;99.90;;;;;;4422810;32;20370;-64
2023/05/01 02:02:19;;;;;;;1.95;0.93;;;7.70;99.90;;;;;;4424214;32;20176;-64
2023/05/01 02:04:48;;;;;;;0.40;0.40;;;7.70;99.90;;;;;;4428048;32;20086;-64
2023/05/01 02:07:15;;;;;;;1.05;0.75;;;7.60;99.90;;;;;;4422766;32;20093;-64
2023/05/01 02:09:43;;;;;;;1.05;0.93;;;7.60;99.90;;;;;;4425999;32;20074;-64
2023/05/01 02:12:10;;;;;;;1.80;0.90;;;7.70;99.90;;;;;;4425168;32;20081;-64
2023/05/01 02:14:36;;;;;;;10.35;1.35;;;7.70;99.90;;;;;;4425214;32;20101;-64
2023/05/01 02:17:03;;;;;;;2.97;0.93;;;7.60;99.90;;;;;;4424594;32;20065;-64
2023/05/01 02:19:31;;;;;;;0.65;0.65;;;7.60;99.90;;;;;;4424169;32;20521;-63
2023/05/01 02:21:58;;;;;;;1.85;1.12;;;7.60;99.90;;;;;;4422177;32;20093;-64
2023/05/01 02:24:27;;;;;;;0.73;0.73;;;7.50;99.90;;;;;;4425052;32;20422;-64
2023/05/01 02:26:58;;;;;;;1.37;0.90;;;7.40;99.90;;;;;;4425364;32;20442;-63
2023/05/01 02:29:25;;;;;;;2.00;1.08;;;7.40;99.90;;;;;;4425649;32;21149;-64
2023/05/01 02:31:50;;;;;;;0.77;0.77;;;7.20;99.90;;;;;;4421880;32;20419;-64
2023/05/01 02:34:16;;;;;;;0.50;0.50;;;7.10;99.90;;;;;;4424436;32;20092;-64
2023/05/01 02:36:41;;;;;;;0.70;0.65;;;7.20;99.90;;;;;;4422206;32;20081;-64
2023/05/01 02:39:07;;;;;;;0.75;0.75;;;7.20;99.90;;;;;;4420504;32;20766;-64
2023/05/01 02:41:34;;;;;;;0.60;0.60;;;7.20;99.90;;;;;;4418505;32;20458;-63
2023/05/01 02:44:03;;;;;;;0.60;0.60;;;7.40;99.90;;;;;;4424057;32;20431;-64
2023/05/01 02:46:31;;;;;;;0.52;0.52;;;7.40;99.90;;;;;;4419675;32;20082;-64
2023/05/01 02:49:00;;;;;;;1.17;1.05;;;7.40;99.90;;;;;;4425084;32;20066;-64
2023/05/01 02:51:26;;;;;;;1.30;0.98;;;7.20;99.90;;;;;;4424860;32;20106;-64
2023/05/01 02:53:53;;;;;;;1.00;0.90;;;7.20;99.90;;;;;;4410623;32;20093;-64
2023/05/01 02:56:18;;;;;;;2.42;1.42;;;7.20;99.90;;;;;;4423540;32;20078;-63
2023/05/01 02:58:46;;;;;;;0.77;0.77;;;7.20;99.90;;;;;;4424616;32;20088;-64
2023/05/01 03:01:12;;;;;;;1.27;0.70;;;7.20;99.90;;;;;;4426081;32;20070;-64
2023/05/01 03:03:37;;;;;;;1.08;0.98;;;7.20;99.90;;;;;;4425584;32;20069;-64
2023/05/01 03:06:03;;;;;;;0.60;0.60;;;7.20;99.90;;;;;;4423928;32;20065;-64
2023/05/01 03:08:29;;;;;;;0.50;0.50;;;7.30;99.90;;;;;;4426076;32;20066;-64
2023/05/01 03:10:55;;;;;;;0.80;0.80;;;7.10;99.90;;;;;;4423074;32;20139;-64
2023/05/01 03:13:21;;;;;;;3.95;1.17;;;7.00;99.90;;;;;;4423562;32;20077;-64
2023/05/01 03:15:47;;;;;;;1.40;0.95;;;7.00;99.90;;;;;;4423597;32;20097;-64
2023/05/01 03:18:12;;;;;;;1.27;0.98;;;7.00;99.90;;;;;;4425665;32;20069;-63
2023/05/01 03:20:39;;;;;;;1.17;1.08;;;7.00;99.90;;;;;;4411366;32;20093;-64
2023/05/01 03:23:05;;;;;;;3.10;1.33;;;7.00;99.90;;;;;;4423333;32;20526;-64
2023/05/01 03:25:31;;;;;;;0.50;0.50;;;7.10;99.90;;;;;;4423401;32;20553;-64
2023/05/01 03:27:56;;;;;;;1.08;1.02;;;7.00;99.90;;;;;;4422337;32;20077;-63
2023/05/01 03:30:22;;;;;;;4.22;0.90;;;7.00;99.90;;;;;;4424447;32;20250;-64
2023/05/01 03:32:47;;;;;;;0.80;0.75;;;7.00;99.90;;;;;;4422969;32;20065;-64
2023/05/01 03:35:13;;;;;;;4.37;1.00;;;7.00;99.90;;;;;;4422459;32;20504;-64
2023/05/01 03:37:38;;;;;;;0.60;0.60;;;7.00;99.90;;;;;;4422272;32;20100;-64
2023/05/01 03:40:05;;;;;;;5.12;1.02;;;6.90;99.90;;;;;;4424368;32;20061;-64
2023/05/01 03:42:30;;;;;;;4.53;2.40;;;6.90;99.90;;;;;;4421150;32;20627;-64
2023/05/01 03:44:56;;;;;;;1.85;1.35;;;6.90;99.90;;;;;;4423230;32;20136;-64
2023/05/01 03:47:22;;;;;;;0.80;0.80;;;6.90;99.90;;;;;;4422403;32;20805;-64
2023/05/01 03:49:47;;;;;;;1.23;1.15;;;6.90;99.90;;;;;;4422178;32;20089;-64
2023/05/01 03:52:13;;;;;;;1.40;0.85;;;6.80;99.90;;;;;;4423928;32;20064;-64
2023/05/01 03:54:39;;;;;;;0.82;0.82;;;6.70;99.90;;;;;;4426760;32;20077;-64
2023/05/01 03:57:04;;;;;;;0.52;0.52;;;6.80;99.90;;;;;;4424849;32;20085;-64
2023/05/01 03:59:30;;;;;;;1.52;1.02;;;6.70;99.90;;;;;;4423973;32;20053;-64
2023/05/01 04:01:55;;;;;;;0.70;0.70;;;6.80;99.90;;;;;;4422013;32;20175;-65
2023/05/01 04:04:21;;;;;;;0.65;0.65;;;6.90;99.90;;;;;;4424376;32;20117;-64
2023/05/01 04:06:48;;;;;;;0.70;0.70;;;6.90;99.90;;;;;;4423293;32;20069;-64
2023/05/01 04:09:14;;;;;;;0.88;0.88;;;6.90;99.90;;;;;;4424870;32;20073;-64
2023/05/01 04:11:40;;;;;;;0.98;0.80;;;6.80;99.90;;;;;;4424653;32;20124;-63
2023/05/01 04:14:06;;;;;;;0.95;0.80;;;6.70;99.90;;;;;;4424608;32;20082;-63
2023/05/01 04:16:32;;;;;;;0.65;0.62;;;6.80;99.90;;;;;;4420364;32;20121;-63
2023/05/01 04:18:57;;;;;;;1.45;1.27;;;6.80;99.90;;;;;;4423657;32;20465;-64
2023/05/01 04:21:23;;;;;;;0.60;0.60;;;6.90;99.90;;;;;;4423155;32;20128;-64
2023/05/01 04:23:48;;;;;;;0.40;0.40;;;6.90;99.90;;;;;;4423792;32;20077;-63
2023/05/01 04:26:16;;;;;;;0.70;0.70;;;6.90;99.90;;;;;;4425019;32;20081;-64
2023/05/01 04:28:41;;;;;;;5.20;1.05;;;6.90;99.90;;;;;;4422119;32;20076;-63
2023/05/01 04:31:07;;;;;;;0.98;0.98;;;6.90;99.90;;;;;;4420386;32;20497;-64
2023/05/01 04:33:32;;;;;;;1.05;0.70;;;7.00;99.90;;;;;;4423499;32;20614;-63
2023/05/01 04:35:58;;;;;;;0.50;0.50;;;7.00;99.90;;;;;;4421746;32;20085;-64
2023/05/01 04:38:24;;;;;;;8.75;1.62;;;7.10;99.90;;;;;;4423285;32;20069;-63
2023/05/01 04:40:49;;;;;;;0.55;0.55;;;7.10;99.90;;;;;;4423048;32;20130;-62
2023/05/01 04:43:15;;;;;;;2.12;1.37;;;7.10;99.90;;;;;;4425836;32;20083;-64
2023/05/01 04:45:40;;;;;;;3.03;1.52;;;7.10;99.90;;;;;;4424806;32;20120;-63
2023/05/01 04:48:06;;;;;;;0.93;0.75;;;7.20;99.90;;;;;;4422052;32;20065;-65
2023/05/01 04:50:31;;;;;;;0.43;0.43;;;7.20;99.90;;;;;;4423410;32;20463;-65
2023/05/01 04:52:58;;;;;;;0.50;0.50;;;7.20;99.90;;;;;;4425835;32;20082;-65
2023/05/01 04:55:23;;;;;;;0.50;0.50;;;7.30;99.90;;;;;;4420521;32;20537;-64
2023/05/01 04:57:49;;;;;;;0.88;0.88;;;7.30;99.90;;;;;;4426265;32;20065;-64
2023/05/01 05:00:17;;;;;;;1.62;0.88;;;7.30;99.90;;;;;;4423976;32;20145;-64
2023/05/01 05:02:44;;;;;;;0.47;0.47;;;7.40;99.90;;;;;;4423589;32;20077;-64
2023/05/01 05:05:09;;;;;;;0.50;0.50;;;7.50;99.90;;;;;;4422126;32;20102;-64
2023/05/01 05:07:35;;;;;;;0.40;0.40;;;7.60;99.90;;;;;;4425779;32;20081;-65
2023/05/01 05:10:00;;;;;;;0.52;0.52;;;7.60;99.90;;;;;;4425940;32;20065;-64
2023/05/01 05:12:26;;;;;;;13.07;0.57;;;7.60;99.90;;;;;;4425601;32;20132;-64
2023/05/01 05:14:51;;;;;;;0.93;0.93;;;7.80;99.90;;;;;;4425459;32;20085;-64
2023/05/01 05:17:17;;;;;;;0.50;0.50;;;7.80;99.90;;;;;;4425549;32;20065;-64
2023/05/01 05:19:42;;;;;;;0.60;0.60;;;7.80;99.90;;;;;;4424604;32;20077;-64
2023/05/01 05:22:07;;;;;;;0.30;0.30;;;7.80;99.90;;;;;;4425483;32;20066;-64
2023/05/01 05:24:33;;;;;;;0.32;0.32;;;7.90;99.90;;;;;;4424497;32;20061;-64
2023/05/01 05:26:58;;;;;;;0.40;0.40;;;7.90;99.90;;;;;;4425108;32;20152;-64
2023/05/01 05:29:26;;;;;;;0.35;0.35;;;8.00;99.90;;;;;;4425586;32;20160;-64
2023/05/01 05:31:52;;;;;;;18.77;0.80;;;8.10;99.90;;;;;;4423654;32;20411;-64
2023/05/01 05:34:18;;;;;;;0.40;0.40;;;8.20;99.90;;;;;;4425179;32;20135;-65
2023/05/01 05:36:44;;;;;;;0.85;0.50;;;8.30;99.90;;;;;;4422778;32;20073;-64
2023/05/01 05:39:10;;;;;;;13.00;0.80;;;8.40;99.90;;;;;;4423123;32;20113;-64
2023/05/01 05:41:36;;;;;;;0.57;0.57;;;8.50;99.90;;;;;;4424579;32;20119;-65
2023/05/01 05:44:01;;;;;;;0.75;0.75;;;8.60;99.90;;;;;;4423482;32;20521;-64
2023/05/01 05:46:27;;;;;;;0.50;0.50;;;8.60;99.90;;;;;;4423414;32;20065;-64
2023/05/01 05:48:52;;;;;;;0.43;0.43;;;8.70;99.90;;;;;;4423740;32;20147;-65
2023/05/01 05:51:19;;;;;;;0.40;0.40;;;8.80;99.90;;;;;;4425067;32;20152;-64
2023/05/01 05:53:44;;;;;;;0.50;0.50;;;9.00;99.90;;;;;;4422412;32;20703;-64
2023/05/01 05:56:11;;;;;;;0.30;0.30;;;9.00;99.90;;;;;;4424988;32;20128;-63
2023/05/01 05:58:36;;;;;;;0.43;0.43;;;9.10;99.90;;;;;;4426226;32;20383;-64
2023/05/01 06:01:02;;;;;;;0.30;0.30;;;9.20;99.90;;;;;;4423835;32;20065;-64
2023/05/01 06:03:27;;;;;;;2.10;1.27;;;9.20;99.90;;;;;;4411065;32;20095;-64
2023/05/01 06:05:53;;;;;;;0.50;0.50;;;9.20;99.90;;;;;;4424840;32;20089;-64
2023/05/01 06:08:19;;;;;;;1.95;1.35;;;9.40;99.90;;;;;;4424305;32;20073;-64
2023/05/01 06:10:44;;;;;;;0.40;0.40;;;9.50;99.90;;;;;;4424573;32;20065;-63
2023/05/01 06:13:10;;;;;;;1.10;0.73;;;9.50;99.90;;;;;;4424895;32;20065;-64
2023/05/01 06:15:37;;;;;;;0.43;0.43;;;9.60;99.90;;;;;;4422804;32;20097;-64
2023/05/01 06:18:02;;;;;;;0.30;0.30;;;9.70;99.90;;;;;;4423409;32;20077;-64
2023/05/01 06:20:28;;;;;;;2.08;1.17;;;9.80;99.90;;;;;;4424443;32;20093;-64
2023/05/01 06:22:54;;;;;;;0.55;0.55;;;9.80;99.90;;;;;;4424274;32;20086;-64
2023/05/01 06:25:22;;;;;;;0.45;0.45;;;9.90;99.90;;;;;;4422459;32;20160;-64
2023/05/01 06:27:50;;;;;;;0.77;0.70;;;10.00;99.90;;;;;;4423439;32;20127;-64
2023/05/01 06:30:18;;;;;;;18.30;0.75;;;10.10;99.90;;;;;;4425070;32;20747;-64
2023/05/01 06:32:44;;;;;;;0.98;0.98;;;10.20;99.90;;;;;;4424484;32;20462;-64
2023/05/01 06:35:11;;;;;;;0.60;0.60;;;10.30;99.90;;;;;;4422731;32;20727;-64
2023/05/01 06:37:37;;;;;;;0.90;0.90;;;10.30;99.90;;;;;;4422258;32;21038;-64
2023/05/01 06:40:04;;;;;;;0.73;0.52;;;10.40;99.90;;;;;;4423735;32;20112;-63
2023/05/01 06:42:30;;;;;;;0.47;0.47;;;10.50;99.90;;;;;;4422879;32;20191;-64
2023/05/01 06:44:55;;;;;;;0.50;0.50;;;10.60;99.90;;;;;;4424694;32;20081;-62
2023/05/01 06:47:21;;;;;;;0.82;0.55;;;10.60;99.90;;;;;;4422051;32;20533;-64
2023/05/01 06:49:46;;;;;;;0.60;0.60;;;10.80;99.90;;;;;;4423481;32;20394;-63
2023/05/01 06:52:12;;;;;;;0.60;0.60;;;11.00;99.90;;;;;;4422875;32;20201;-64
2023/05/01 06:54:37;;;;;;;2.08;0.80;;;11.10;99.90;;;;;;4423067;32;20076;-64
2023/05/01 06:57:03;;;;;;;3.70;1.00;;;11.10;99.90;;;;;;4423001;32;20073;-64
2023/05/01 06:59:28;;;;;;;1.12;1.02;;;11.20;99.90;;;;;;4423107;32;20152;-66
2023/05/01 07:01:54;;;;;;;0.73;0.73;;;11.20;99.90;;;;;;4416583;32;20138;-67
2023/05/01 07:04:19;;;;;;;19.87;1.42;;;11.30;99.90;;;;;;4423413;32;20519;-67
2023/05/01 07:06:45;;;;;;;0.50;0.50;;;11.40;99.90;;;;;;4422233;32;20093;-68
2023/05/01 07:09:11;;;;;;;0.35;0.35;;;11.50;99.90;;;;;;4423258;32;20077;-67
2023/05/01 07:11:37;;;;;;;0.70;0.70;;;11.60;99.90;;;;;;4421273;32;20084;-67
2023/05/01 07:14:02;;;;;;;0.70;0.70;;;11.70;99.90;;;;;;4424064;32;20077;-68
2023/05/01 07:16:28;;;;;;;0.30;0.30;;;11.70;99.90;;;;;;4422732;32;20069;-67
2023/05/01 07:18:53;;;;;;;0.40;0.40;;;11.60;99.90;;;;;;4408021;32;20073;-67
2023/05/01 07:21:19;;;;;;;0.75;0.50;;;11.70;99.90;;;;;;4422844;32;20524;-67
2023/05/01 07:23:45;;;;;;;0.75;0.60;;;11.90;99.90;;;;;;4423494;32;20156;-66
2023/05/01 07:26:10;;;;;;;0.60;0.60;;;12.00;99.90;;;;;;4422192;32;20085;-67
2023/05/01 07:28:37;;;;;;;0.52;0.52;;;12.10;99.90;;;;;;4421338;32;20552;-67
2023/05/01 07:31:03;;;;;;;3.55;1.42;;;12.30;99.90;;;;;;4420496;32;20069;-68
2023/05/01 07:33:28;;;;;;;0.50;0.50;;;12.60;99.90;;;;;;4421997;32;20582;-67
2023/05/01 07:35:55;;;;;;;0.37;0.37;;;12.60;99.90;;;;;;4422213;32;20089;-67
2023/05/01 07:38:21;;;;;;;0.60;0.60;;;12.70;99.90;;;;;;4421823;32;20074;-68
2023/05/01 07:40:46;;;;;;;0.50;0.50;;;12.60;99.90;;;;;;4421114;32;20114;-67
2023/05/01 07:43:12;;;;;;;0.65;0.65;;;12.50;99.90;;;;;;4422023;32;20069;-67
2023/05/01 07:45:38;;;;;;;0.60;0.60;;;12.60;99.90;;;;;;4418193;32;20101;-67
2023/05/01 07:48:05;;;;;;;1.90;1.37;;;12.60;99.90;;;;;;4407602;32;20204;-68
2023/05/01 07:50:30;;;;;;;14.20;1.85;;;12.70;99.90;;;;;;4420537;32;20085;-67
2023/05/01 07:52:56;;;;;;;0.82;0.62;;;12.80;99.90;;;;;;4408015;32;20057;-67
2023/05/01 07:55:22;;;;;;;0.43;0.43;;;12.90;99.90;;;;;;4421348;32;20084;-67
2023/05/01 07:57:48;;;;;;;0.65;0.60;;;13.00;99.90;;;;;;4423551;32;20101;-67
2023/05/01 08:00:14;;;;;;;0.70;0.70;;;13.00;99.90;;;;;;4420997;32;20089;-68
2023/05/01 08:02:39;;;;;;;0.77;0.75;;;13.10;99.90;;;;;;4422052;32;20135;-66
2023/05/01 08:05:06;;;;;;;0.52;0.52;;;13.10;99.90;;;;;;4408742;32;20389;-68
2023/05/01 08:07:33;;;;;;;0.47;0.47;;;13.10;99.90;;;;;;4421113;32;20062;-66
2023/05/01 08:09:59;;;;;;;3.30;0.77;;;13.10;99.90;;;;;;4421073;32;20117;-68
2023/05/01 08:12:25;;;;;;;0.93;0.45;;;13.40;99.90;;;;;;4419301;32;20117;-67
2023/05/01 08:14:51;;;;;;;0.40;0.40;;;13.70;99.90;;;;;;4421118;32;20157;-67
2023/05/01 08:17:16;;;;;;;0.30;0.30;;;13.70;99.90;;;;;;4421529;32;20504;-68
2023/05/01 08:19:42;;;;;;;0.43;0.43;;;13.90;99.80;;;;;;4420908;32;20105;-67
2023/05/01 08:22:07;;;;;;;0.52;0.52;;;14.00;99.60;;;;;;4421083;32;20106;-68
2023/05/01 08:24:33;;;;;;;1.25;0.70;;;14.00;99.10;;;;;;4421326;32;20124;-68
2023/05/01 08:26:58;;;;;;;0.60;0.60;;;14.00;98.60;;;;;;4425725;32;20069;-63
2023/05/01 08:29:24;;;;;;;2.35;1.25;;;14.10;99.80;;;;;;4425100;32;20156;-62
2023/05/01 08:31:49;;;;;;;0.32;0.32;;;14.20;98.40;;;;;;4420150;32;20075;-64
2023/05/01 08:34:16;;;;;;;0.50;0.50;;;14.30;99.70;;;;;;4423062;32;20135;-61
2023/05/01 08:36:41;;;;;;;1.35;1.10;;;14.60;99.90;;;;;;4423250;32;20438;-61
2023/05/01 08:39:07;;;;;;;11.27;1.75;;;14.70;99.10;;;;;;4423579;32;20130;-63
2023/05/01 08:41:34;;;;;;;1.37;0.77;;;14.90;99.00;;;;;;4422229;32;20073;-60
2023/05/01 08:44:01;;;;;;;0.30;0.30;;;15.10;97.60;;;;;;4409656;32;20062;-63
2023/05/01 08:46:43;;;;;;;1.65;0.75;;;15.10;96.60;;;;;;4407439;32;20101;-62
2023/05/01 08:49:11;;;;;;;2.58;1.40;;;15.20;96.20;;;;;;4396367;32;20094;-61
2023/05/01 08:51:38;;;;;;;1.37;0.68;;;15.10;96.10;;;;;;4408798;32;20497;-62
2023/05/01 08:54:05;;;;;;;9.50;0.95;;;14.90;96.00;;;;;;4408512;32;20083;-62
2023/05/01 08:56:33;;;;;;;9.75;0.80;;;14.90;96.60;;;;;;4408585;32;20089;-61
2023/05/01 08:59:02;;;;;;;0.50;0.50;;;15.20;96.70;;;;;;4410321;32;20069;-62
2023/05/01 09:01:29;;;;;;;0.55;0.55;;;15.20;95.70;;;;;;4383138;32;20073;-62
2023/05/01 09:03:56;;;;;;;0.40;0.40;;;15.30;95.90;;;;;;4408203;32;20410;-62
2023/05/01 09:06:22;;;;;;;0.40;0.40;;;15.30;95.10;;;;;;4408695;32;20477;-60
2023/05/01 09:08:47;;;;;;;0.55;0.55;;;15.30;95.60;;;;;;4406825;32;20090;-60
2023/05/01 09:11:13;;;;;;;0.70;0.50;;;15.40;96.00;;;;;;4409669;32;20422;-66
2023/05/01 09:13:38;;;;;;;0.50;0.50;;;15.60;94.90;;;;;;4408216;32;20078;-67
2023/05/01 09:16:05;;;;;;;1.75;1.42;;;15.80;95.30;;;;;;4408379;32;20093;-67
2023/05/01 09:18:32;;;;;;;1.85;0.85;;;16.10;94.50;;;;;;4409936;32;20450;-67
2023/05/01 09:20:58;;;;;;;4.05;1.10;;;16.30;94.40;;;;;;4394348;32;20158;-67
2023/05/01 09:23:23;;;;;;;0.85;0.40;;;16.40;93.70;;;;;;4410582;32;20140;-66
2023/05/01 09:25:49;;;;;;;0.80;0.80;;;16.60;93.60;;;;;;4394437;32;20105;-67
2023/05/01 09:28:15;;;;;;;1.15;0.98;;;16.50;92.90;;;;;;4408364;32;20085;-66
2023/05/01 09:30:41;;;;;;;0.70;0.70;;;16.60;94.00;;;;;;4394665;32;20081;-66
2023/05/01 09:33:09;;;;;;;0.40;0.40;;;16.80;92.60;;;;;;4408425;32;20122;-67
2023/05/01 09:35:53;;;;;;;6.28;1.05;;;16.90;93.00;;;;;;4409595;32;20379;-67
2023/05/01 09:38:22;;;;;;;0.50;0.50;;;17.20;93.50;;;;;;4409901;32;20140;-67
2023/05/01 09:40:48;;;;;;;0.43;0.43;;;17.10;92.00;;;;;;4393716;32;20114;-67
2023/05/01 09:43:22;;;;;;;1.50;0.98;;;17.10;92.00;;;;;;4421262;32;20082;-67
2023/05/01 09:45:59;;;;;;;6.05;0.60;;;17.20;92.60;;;;;;4407922;32;20551;-66
2023/05/01 09:48:25;;;;;;;0.30;0.30;;;17.50;91.60;;;;;;4397882;32;20248;-67
2023/05/01 09:50:51;;;;;;;0.88;0.73;;;17.70;91.50;;;;;;4422406;32;20839;-66
2023/05/01 09:53:16;;;;;;;3.80;0.40;;;17.70;91.10;;;;;;4424071;32;20537;-66
2023/05/01 09:55:41;;;;;;;0.57;0.57;;;17.90;91.70;;;;;;4422943;32;20234;-66
2023/05/01 09:58:11;;;;;;;0.40;0.40;;;17.80;90.60;;;;;;4423456;32;20108;-67
2023/05/01 10:00:51;;;;;;;0.55;0.55;;;17.70;91.90;;;;;;4420875;32;20053;-67
2023/05/01 10:03:17;;;;;;;1.50;0.50;;;18.10;91.70;;;;;;4424012;32;20084;-66
2023/05/01 10:05:43;;;;;;;0.62;0.62;;;18.30;90.40;;;;;;4422499;32;20592;-67
2023/05/01 10:08:13;;;;;;;0.65;0.65;;;18.50;91.20;;;;;;4406441;32;20105;-67
2023/05/01 10:10:40;;;;;;;0.60;0.60;;;18.80;89.90;;;;;;4422582;32;20086;-66
2023/05/01 10:13:15;;;;;;;0.50;0.50;;;18.90;90.40;;;;;;4397455;32;20081;-67
2023/05/01 10:15:41;;;;;;;0.40;0.40;;;19.10;87.70;;;;;;4423097;32;20078;-68
2023/05/01 10:18:10;;;;;;;0.70;0.60;;;18.90;86.90;;;;;;4424135;32;20445;-67
2023/05/01 10:20:36;;;;;;;0.30;0.30;;;18.90;88.60;;;;;;4410887;32;20161;-69
2023/05/01 10:23:02;;;;;;;0.50;0.50;;;19.10;88.80;;;;;;4423300;32;20082;-67
2023/05/01 10:25:29;;;;;;;0.40;0.40;;;19.40;85.70;;;;;;4408586;32;20143;-67
2023/05/01 10:27:56;;;;;;;0.40;0.40;;;19.50;83.30;;;;;;4422137;32;20081;-65
2023/05/01 10:30:21;;;;;;;0.40;0.40;;;19.40;85.20;;;;;;4408723;32;20125;-67
2023/05/01 10:32:48;;;;;;;0.60;0.60;;;19.40;83.90;;;;;;4421808;32;20520;-65
2023/05/01 10:35:22;;;;;;;1.52;0.47;;;19.50;85.30;;;;;;4411348;32;20536;-66
2023/05/01 10:37:57;;;;;;;1.23;0.68;;;19.60;84.60;;;;;;4409021;32;20557;-66
2023/05/01 10:40:44;;;;;;;1.42;0.85;;;19.60;85.10;;;;;;4404706;32;20557;-65
2023/05/01 10:43:15;;;;;;;0.50;0.50;;;19.80;83.00;;;;;;4423331;32;20501;-66
2023/05/01 10:45:43;;;;;;;1.02;0.93;;;19.90;82.70;;;;;;4422011;32;20085;-68
2023/05/01 10:48:08;;;;;;;0.45;0.45;;;20.20;80.30;;;;;;4396186;32;20062;-67
2023/05/01 10:50:34;;;;;;;0.82;0.50;;;20.20;78.70;;;;;;4409771;32;20107;-67
2023/05/01 10:53:15;;;;;;;1.08;0.62;;;20.60;81.20;;;;;;4423021;32;20498;-66
2023/05/01 10:55:43;;;;;;;0.60;0.50;;;20.80;80.50;;;;;;4407977;32;20093;-65
2023/05/01 10:58:09;;;;;;;0.35;0.35;;;21.00;80.30;;;;;;4407700;32;20201;-66
2023/05/01 11:00:35;;;;;;;0.50;0.50;;;21.30;78.80;;;;;;4396574;32;20510;-66
2023/05/01 11:03:22;;;;;;;0.43;0.43;;;20.90;78.50;;;;;;4422212;32;20148;-66
2023/05/01 11:06:05;;;;;;;0.50;0.50;;;20.70;78.20;;;;;;4410488;32;20627;-66
2023/05/01 11:08:33;;;;;;;0.40;0.40;;;20.20;76.60;;;;;;4393259;32;20077;-65
2023/05/01 11:11:21;;;;;;;0.98;0.68;;;19.60;78.60;;;;;;4421563;32;20088;-67
2023/05/01 11:14:07;;;;;;;0.75;0.70;;;19.30;79.60;;;;;;4412563;32;20128;-68
2023/05/01 11:16:38;;;;;;;0.80;0.80;;;19.30;81.90;;;;;;4412374;32;20125;-67
2023/05/01 11:19:10;;;;;;;0.43;0.40;;;19.20;81.00;;;;;;4422214;32;20077;-71
2023/05/01 11:21:37;;;;;;;3.30;0.80;;;19.30;80.30;;;;;;4407857;32;20077;-67
2023/05/01 11:24:04;;;;;;;0.30;0.30;;;19.20;80.20;;;;;;4408000;32;20074;-68
2023/05/01 11:26:31;;;;;;;1.48;1.33;;;19.30;81.20;;;;;;4421208;32;20109;-67
2023/05/01 11:28:59;;;;;;;0.35;0.35;;;19.30;81.20;;;;;;4408599;32;20538;-67
2023/05/01 11:31:26;;;;;;;0.75;0.75;;;19.20;80.40;;;;;;4410643;32;20172;-67
2023/05/01 11:33:55;;;;;;;1.45;1.25;;;19.70;76.50;;;;;;4395423;32;20061;-67
2023/05/01 11:36:21;;;;;;;0.40;0.40;;;19.90;77.00;;;;;;4422153;32;20101;-66
2023/05/01 11:38:52;;;;;;;0.93;0.70;;;20.10;75.50;;;;;;4421016;32;20077;-67
2023/05/01 11:41:20;;;;;;;1.85;1.30;;;20.20;75.00;;;;;;4419939;32;20479;-66
2023/05/01 11:44:01;;;;;;;0.47;0.47;;;20.60;73.10;;;;;;4393016;32;86985;-67
2023/05/01 11:46:27;;;;;;;;;;;21.00;74.00;;;;;;4420720;32;20143;-66
2023/05/01 11:48:55;;;;;;;2.17;1.27;;;21.70;73.30;;;;;;4407167;32;20306;-65
2023/05/01 11:51:21;;;;;;;0.70;0.60;;;21.50;72.80;;;;;;4420137;32;20093;-65
2023/05/01 11:54:08;;;;;;;4.45;1.45;;;21.90;71.10;;;;;;4395301;32;20116;-66
2023/05/01 11:56:35;;;;;;;0.47;0.47;;;22.10;73.50;;;;;;4411160;32;20098;-66
2023/05/01 11:59:10;;;;;;;0.40;0.40;;;22.60;69.60;;;;;;4406185;32;20512;-66
2023/05/01 12:01:38;;;;;;;0.57;0.57;;;22.90;68.40;;;;;;4405423;32;20069;-65
2023/05/01 12:04:06;;;;;;;0.43;0.43;;;22.80;68.40;;;;;;4408137;32;20550;-67
2023/05/01 12:06:43;;;;;;;0.93;0.75;;;22.70;68.90;;;;;;4406822;32;20569;-66
2023/05/01 12:09:11;;;;;;;0.80;0.77;;;22.60;68.40;;;;;;4405772;32;20110;-66
2023/05/01 12:11:38;;;;;;;0.30;0.30;;;22.40;70.20;;;;;;4421937;32;20081;-66
2023/05/01 12:14:04;;;;;;;0.40;0.40;;;22.70;70.90;;;;;;4418764;32;20093;-66
2023/05/01 12:16:30;;;;;;;2.80;1.15;;;22.70;68.50;;;;;;4423255;32;20069;-66
2023/05/01 12:18:55;;;;;;;0.85;0.60;;;22.60;67.00;;;;;;4421994;32;20086;-66
2023/05/01 12:21:21;;;;;;;0.62;0.62;;;22.60;68.60;;;;;;4423101;32;20105;-66
2023/05/01 12:23:48;;;;;;;1.05;0.93;;;22.70;68.40;;;;;;4416793;32;20077;-67
2023/05/01 12:26:20;;;;;;;0.20;0.20;;;23.00;68.10;;;;;;4402688;32;20192;-67
2023/05/01 12:29:04;;;;;;;0.75;0.70;;;22.70;67.00;;;;;;4420131;32;20117;-68
2023/05/01 12:31:30;;;;;;;0.22;0.22;;;22.40;69.20;;;;;;4418174;32;20136;-68
2023/05/01 12:33:59;;;;;;;3.40;1.23;;;22.40;68.90;;;;;;4422106;32;20085;-67
2023/05/01 12:36:27;;;;;;;1.02;0.88;;;22.40;67.60;;;;;;4405869;32;20093;-67
2023/05/01 12:38:56;;;;;;;0.30;0.30;;;22.40;66.50;;;;;;4406361;32;20077;-65
2023/05/01 12:41:33;;;;;;;0.40;0.40;;;22.40;65.90;;;;;;4419507;32;21316;-67
2023/05/01 12:43:59;;;;;;;0.50;0.50;;;22.30;67.40;;;;;;4422261;32;20097;-65
2023/05/01 12:46:25;;;;;;;0.43;0.43;;;22.40;65.90;;;;;;4417248;32;20186;-67
2023/05/01 12:48:51;;;;;;;1.27;0.73;;;22.70;66.60;;;;;;4403293;32;20381;-66
2023/05/01 12:51:18;;;;;;;0.57;0.50;;;22.60;65.80;;;;;;4416223;32;20084;-68
2023/05/01 12:53:44;;;;;;;0.45;0.40;;;22.60;66.50;;;;;;4419138;32;20073;-68
2023/05/01 12:56:22;;;;;;;10.23;1.80;;;22.60;66.50;;;;;;4386463;32;20556;-68